createdAt,value
2018-11-14T00:01:46.736Z,101450.37
2018-11-14T00:04:16.957Z,101448.47
2018-11-14T00:06:47.365Z,101450.95
2018-11-14T00:09:17.442Z,101450.31
2018-11-14T00:11:47.450Z,101456.55
2018-11-14T00:14:17.542Z,101465.08
2018-11-14T00:16:47.560Z,101465.20
2018-11-14T00:19:17.580Z,101473.95
2018-11-14T00:21:47.681Z,101476.02
2018-11-14T00:24:17.655Z,101473.00
2018-11-14T00:26:47.814Z,101478.20
2018-11-14T00:29:18.356Z,101480.62
2018-11-14T00:31:48.361Z,101481.58
2018-11-14T00:34:18.773Z,101482.16
2018-11-14T00:36:48.797Z,101487.17
2018-11-14T00:39:18.813Z,101481.89
2018-11-14T00:41:48.868Z,101490.67
2018-11-14T00:44:18.856Z,101489.08
2018-11-14T00:46:49.191Z,101495.66
2018-11-14T00:49:19.390Z,101496.86
2018-11-14T00:51:49.720Z,101502.14
2018-11-14T00:54:19.697Z,101498.55
2018-11-14T00:56:49.744Z,101497.35
2018-11-14T00:59:19.813Z,101498.19
2018-11-14T01:01:49.840Z,101494.22
2018-11-14T01:04:20.933Z,101498.19
2018-11-14T01:06:51.210Z,101507.80
2018-11-14T01:09:21.514Z,101506.48
2018-11-14T01:11:51.580Z,101502.14
2018-11-14T01:14:21.790Z,101502.88
2018-11-14T01:16:51.823Z,101497.97
2018-11-14T01:19:22.162Z,101502.30
2018-11-14T01:21:52.398Z,101496.92
2018-11-14T01:24:22.597Z,101497.38
2018-11-14T01:26:52.786Z,101490.77
2018-11-14T01:29:22.854Z,101496.80
2018-11-14T01:31:52.815Z,101499.80
2018-11-14T01:34:23.064Z,101499.93
2018-11-14T01:36:53.306Z,101504.36
2018-11-14T01:39:30.883Z,101498.98
2018-11-14T01:42:00.921Z,101498.84
2018-11-14T01:44:31.217Z,101500.54
2018-11-14T01:47:01.610Z,101503.92
2018-11-14T01:49:31.562Z,101506.93
2018-11-14T01:52:01.820Z,101509.57
2018-11-14T01:54:31.614Z,101510.53
2018-11-14T01:57:01.451Z,101513.02
2018-11-14T01:59:31.446Z,101511.18
2018-11-14T02:02:01.325Z,101510.81
2018-11-14T02:04:31.378Z,101512.05
2018-11-14T02:07:01.594Z,101509.77
2018-11-14T02:09:31.480Z,101511.70
2018-11-14T02:12:01.475Z,101512.50
2018-11-14T02:14:31.360Z,101508.81
2018-11-14T02:17:01.557Z,101517.58
2018-11-14T02:19:31.462Z,101516.62
2018-11-14T02:22:01.616Z,101514.69
2018-11-14T02:24:31.817Z,101514.19
2018-11-14T02:27:02.328Z,101516.62
2018-11-14T02:29:32.102Z,101515.58
2018-11-14T02:32:02.236Z,101502.64
2018-11-14T02:34:32.744Z,101512.44
2018-11-14T02:37:02.529Z,101511.61
2018-11-14T02:39:32.743Z,101509.70
2018-11-14T02:42:02.834Z,101509.11
2018-11-14T02:44:32.646Z,101507.08
2018-11-14T02:47:02.445Z,101508.98
2018-11-14T02:49:32.448Z,101511.54
2018-11-14T02:52:02.686Z,101512.52
2018-11-14T02:54:32.416Z,101505.53
2018-11-14T02:57:02.224Z,101510.73
2018-11-14T02:59:32.258Z,101516.76
2018-11-14T03:02:02.285Z,101507.96
2018-11-14T03:04:32.841Z,101508.45
2018-11-14T03:07:02.654Z,101507.96
2018-11-14T03:09:32.663Z,101515.80
2018-11-14T03:12:02.616Z,101491.27
2018-11-14T03:14:32.437Z,101507.16
2018-11-14T03:17:02.459Z,101512.08
2018-11-14T03:19:32.439Z,101516.78
2018-11-14T03:22:02.617Z,101519.42
2018-11-14T03:24:32.545Z,101516.78
2018-11-14T03:27:02.661Z,101511.70
2018-11-14T03:29:32.582Z,101518.69
2018-11-14T03:32:02.401Z,101521.92
2018-11-14T03:34:32.306Z,101515.31
2018-11-14T03:37:02.300Z,101515.44
2018-11-14T03:39:32.804Z,101512.79
2018-11-14T03:42:02.851Z,101512.79
2018-11-14T03:44:33.806Z,101513.62
2018-11-14T03:47:03.766Z,101517.71
2018-11-14T03:49:33.626Z,101516.61
2018-11-14T03:52:03.542Z,101522.11
2018-11-14T03:54:33.517Z,101521.75
2018-11-14T03:57:03.502Z,101522.80
2018-11-14T03:59:33.561Z,101526.39
2018-11-14T04:02:03.472Z,101527.20
2018-11-14T04:04:33.373Z,101525.88
2018-11-14T04:07:04.174Z,101533.58
2018-11-14T04:09:34.334Z,101524.83
2018-11-14T04:12:04.548Z,101520.00
2018-11-14T04:14:34.512Z,101528.30
2018-11-14T04:17:05.640Z,101530.36
2018-11-14T04:19:35.526Z,101539.52
2018-11-14T04:22:05.503Z,101534.23
2018-11-14T04:24:35.434Z,101530.14
2018-11-14T04:27:05.382Z,101534.84
2018-11-14T04:29:35.513Z,101540.12
2018-11-14T04:32:05.867Z,101540.50
2018-11-14T04:34:35.725Z,101538.72
2018-11-14T04:37:05.613Z,101539.45
2018-11-14T04:39:35.447Z,101535.95
2018-11-14T04:42:05.613Z,101534.03
2018-11-14T04:44:35.431Z,101538.73
2018-11-14T04:47:05.585Z,101539.23
2018-11-14T04:49:35.533Z,101535.36
2018-11-14T04:52:05.422Z,101539.81
2018-11-14T04:54:35.596Z,101548.86
2018-11-14T04:57:05.476Z,101543.56
2018-11-14T04:59:35.526Z,101539.23
2018-11-14T05:02:06.202Z,101534.68
2018-11-14T05:04:36.612Z,101531.54
2018-11-14T05:07:06.615Z,101538.00
2018-11-14T05:09:36.445Z,101544.83
2018-11-14T05:12:06.752Z,101543.51
2018-11-14T05:14:36.854Z,101539.30
2018-11-14T05:17:07.057Z,101546.00
2018-11-14T05:19:37.285Z,101542.53
2018-11-14T05:22:07.441Z,101538.07
2018-11-14T05:24:37.428Z,101546.73
2018-11-14T05:27:07.806Z,101549.97
2018-11-14T05:29:37.634Z,101546.73
2018-11-14T05:32:07.757Z,101546.64
2018-11-14T05:34:37.619Z,101550.98
2018-11-14T05:37:08.611Z,101551.34
2018-11-14T05:39:38.452Z,101555.69
2018-11-14T05:42:08.545Z,101549.16
2018-11-14T05:44:38.513Z,101543.20
2018-11-14T05:47:08.543Z,101552.17
2018-11-14T05:49:38.762Z,101551.22
2018-11-14T05:52:08.674Z,101548.86
2018-11-14T05:54:38.510Z,101550.05
2018-11-14T05:57:08.686Z,101545.94
2018-11-14T05:59:38.547Z,101554.23
2018-11-14T06:02:08.490Z,101552.55
2018-11-14T06:04:38.963Z,101555.69
2018-11-14T06:07:09.283Z,101556.88
2018-11-14T06:09:39.564Z,101561.80
2018-11-14T06:12:09.410Z,101561.12
2018-11-14T06:14:39.347Z,101573.02
2018-11-14T06:17:09.469Z,101564.13
2018-11-14T06:19:39.663Z,101557.40
2018-11-14T06:22:09.613Z,101565.83
2018-11-14T06:24:39.436Z,101563.42
2018-11-14T06:27:09.477Z,101565.23
2018-11-14T06:29:39.642Z,101571.72
2018-11-14T06:32:09.561Z,101566.92
2018-11-14T06:34:39.458Z,101567.52
2018-11-14T06:37:09.466Z,101574.00
2018-11-14T06:39:39.508Z,101573.17
2018-11-14T06:42:09.510Z,101571.27
2018-11-14T06:44:39.442Z,101579.72
2018-11-14T06:47:09.336Z,101570.55
2018-11-14T06:49:42.563Z,101565.63
2018-11-14T06:52:12.620Z,101566.14
2018-11-14T06:54:42.472Z,101569.02
2018-11-14T06:57:12.620Z,101565.41
2018-11-14T06:59:42.672Z,101568.57
2018-11-14T07:02:13.032Z,101570.84
2018-11-14T07:04:43.369Z,101563.19
2018-11-14T07:07:13.543Z,101565.48
2018-11-14T07:09:43.569Z,101558.87
2018-11-14T07:12:13.817Z,101567.17
2018-11-14T07:14:43.714Z,101558.05
2018-11-14T07:17:13.630Z,101555.27
2018-11-14T07:19:43.675Z,101572.09
2018-11-14T07:22:13.611Z,101568.68
2018-11-14T07:24:43.648Z,101566.55
2018-11-14T07:27:13.789Z,101558.89
2018-11-14T07:29:43.731Z,101568.30
2018-11-14T07:32:13.736Z,101569.94
2018-11-14T07:34:43.823Z,101566.13
2018-11-14T07:37:13.691Z,101573.89
2018-11-14T07:39:43.639Z,101580.05
2018-11-14T07:42:13.737Z,101578.97
2018-11-14T07:44:43.964Z,101582.02
2018-11-14T07:47:14.551Z,101569.14
2018-11-14T07:49:44.538Z,101574.03
2018-11-14T07:52:15.081Z,101582.34
2018-11-14T07:54:45.375Z,101571.75
2018-11-14T07:57:15.634Z,101578.64
2018-11-14T07:59:45.686Z,101579.42
2018-11-14T08:02:15.630Z,101580.15
2018-11-14T08:04:45.805Z,101585.81
2018-11-14T08:07:15.707Z,101582.11
2018-11-14T08:09:45.569Z,101567.90
2018-11-14T08:12:15.494Z,101572.60
2018-11-14T08:14:45.419Z,101579.95
2018-11-14T08:17:15.804Z,101581.51
2018-11-14T08:19:45.913Z,101580.05
2018-11-14T08:22:15.978Z,101591.70
2018-11-14T08:24:46.123Z,101600.74
2018-11-14T08:27:16.383Z,101596.77
2018-11-14T08:29:46.475Z,101600.02
2018-11-14T08:32:16.467Z,101605.31
2018-11-14T08:34:46.537Z,101602.44
2018-11-14T08:37:16.412Z,101598.36
2018-11-14T08:39:46.301Z,101606.31
2018-11-14T08:42:16.129Z,101617.55
2018-11-14T08:44:46.321Z,101613.57
2018-11-14T08:47:16.366Z,101605.16
2018-11-14T08:49:46.569Z,101607.44
2018-11-14T08:52:17.619Z,101604.92
2018-11-14T08:54:47.381Z,101607.34
2018-11-14T08:57:17.273Z,101608.67
2018-11-14T08:59:47.487Z,101605.06
2018-11-14T09:02:17.920Z,101601.09
2018-11-14T09:04:48.090Z,101612.08
2018-11-14T09:07:18.246Z,101615.33
2018-11-14T09:09:48.490Z,101627.65
2018-11-14T09:12:18.325Z,101620.89
2018-11-14T09:14:48.638Z,101619.33
2018-11-14T09:17:18.594Z,101616.11
2018-11-14T09:19:48.439Z,101624.42
2018-11-14T09:22:18.473Z,101625.14
2018-11-14T09:24:48.393Z,101621.94
2018-11-14T09:27:18.540Z,101633.66
2018-11-14T09:29:48.365Z,101623.52
2018-11-14T09:32:18.389Z,101624.01
2018-11-14T09:34:48.760Z,101614.38
2018-11-14T09:37:18.524Z,101609.53
2018-11-14T09:39:49.158Z,101617.61
2018-11-14T09:42:19.342Z,101608.33
2018-11-14T09:44:49.206Z,101607.72
2018-11-14T09:47:19.267Z,101623.28
2018-11-14T09:49:49.470Z,101611.81
2018-11-14T09:52:19.525Z,101617.72
2018-11-14T09:54:49.652Z,101618.09
2018-11-14T09:57:19.532Z,101623.98
2018-11-14T09:59:49.455Z,101612.04
2018-11-14T10:02:19.450Z,101572.15
2018-11-14T10:04:49.514Z,101613.58
2018-11-14T10:07:19.472Z,101616.02
2018-11-14T10:09:49.623Z,101615.69
2018-11-14T10:12:20.620Z,101610.62
2018-11-14T10:14:50.683Z,101612.89
2018-11-14T10:17:20.563Z,101615.88
2018-11-14T10:19:50.622Z,101618.90
2018-11-14T10:22:20.702Z,101617.68
2018-11-14T10:24:51.029Z,101622.30
2018-11-14T10:27:23.828Z,101613.97
2018-11-14T10:29:53.688Z,101613.00
2018-11-14T10:32:23.511Z,101619.16
2018-11-14T10:34:53.453Z,101611.95
2018-11-14T10:37:23.512Z,101616.87
2018-11-14T10:39:53.452Z,101598.67
2018-11-14T10:42:35.217Z,101602.06
2018-11-14T10:45:05.481Z,101607.36
2018-11-14T10:47:35.478Z,101594.28
2018-11-14T10:50:14.116Z,101599.81
2018-11-14T10:52:44.342Z,101596.93
2018-11-14T10:55:15.300Z,101601.52
2018-11-14T10:57:46.672Z,101611.02
2018-11-14T11:00:26.753Z,101601.34
2018-11-14T11:03:01.801Z,101595.77
2018-11-14T11:05:36.476Z,101604.41
2018-11-14T11:08:11.992Z,101601.69
2018-11-14T11:10:47.181Z,101599.64
2018-11-14T11:13:22.090Z,101600.15
2018-11-14T11:15:57.084Z,101601.03
2018-11-14T11:18:30.219Z,101607.23
2018-11-14T11:21:00.590Z,101607.77
2018-11-14T11:23:30.750Z,101605.25
2018-11-14T11:26:00.788Z,101579.41
2018-11-14T11:28:30.701Z,101596.26
2018-11-14T11:31:00.591Z,101601.36
2018-11-14T11:33:30.420Z,101596.04
2018-11-14T11:36:00.659Z,101598.78
2018-11-14T11:38:30.475Z,101595.14
2018-11-14T11:41:00.348Z,101601.19
2018-11-14T11:43:30.343Z,101589.58
2018-11-14T11:46:00.473Z,101585.23
2018-11-14T11:48:30.372Z,101582.74
2018-11-14T11:51:00.694Z,101584.05
2018-11-14T11:53:31.241Z,101584.19
2018-11-14T11:56:01.260Z,101583.86
2018-11-14T11:58:31.226Z,101583.05
2018-11-14T12:01:01.529Z,101578.70
2018-11-14T12:03:31.430Z,101587.03
2018-11-14T12:06:04.392Z,101565.20
2018-11-14T12:08:34.509Z,101578.27
2018-11-14T12:11:04.670Z,101584.19
2018-11-14T12:13:34.544Z,101587.06
2018-11-14T12:16:04.692Z,101589.81
2018-11-14T12:18:34.635Z,101585.63
2018-11-14T12:21:04.517Z,101576.93
2018-11-14T12:23:34.686Z,101579.39
2018-11-14T12:26:04.741Z,101578.34
2018-11-14T12:28:35.441Z,101576.69
2018-11-14T12:31:05.589Z,101578.64
2018-11-14T12:33:36.295Z,101577.08
2018-11-14T12:36:14.677Z,101581.97
2018-11-14T12:38:45.087Z,101576.75
2018-11-14T12:41:15.962Z,101574.64
2018-11-14T12:43:46.196Z,101578.83
2018-11-14T12:46:16.498Z,101574.48
2018-11-14T12:48:46.535Z,101583.52
2018-11-14T12:51:16.511Z,101580.53
2018-11-14T12:53:46.523Z,101591.88
2018-11-14T12:56:16.458Z,101596.66
2018-11-14T12:58:46.672Z,101592.67
2018-11-14T13:01:16.870Z,101591.59
2018-11-14T13:03:46.892Z,101596.99
2018-11-14T13:06:17.609Z,101589.46
2018-11-14T13:08:47.506Z,101601.55
2018-11-14T13:11:17.490Z,101590.78
2018-11-14T13:13:48.484Z,101603.31
2018-11-14T13:16:19.451Z,101599.58
2018-11-14T13:18:49.498Z,101600.14
2018-11-14T13:21:19.597Z,101603.27
2018-11-14T13:23:50.729Z,101605.45
2018-11-14T13:26:20.691Z,101611.28
2018-11-14T13:28:50.815Z,101614.34
2018-11-14T13:31:21.331Z,101615.42
2018-11-14T13:33:51.785Z,101621.27
2018-11-14T13:36:21.822Z,101626.13
2018-11-14T13:38:51.739Z,101620.95
2018-11-14T13:41:21.700Z,101625.42
2018-11-14T13:43:51.664Z,101628.91
2018-11-14T13:46:21.567Z,101634.61
2018-11-14T13:48:53.270Z,101635.55
2018-11-14T13:51:23.483Z,101632.54
2018-11-14T13:53:53.594Z,101631.57
2018-11-14T13:56:23.563Z,101627.08
2018-11-14T13:58:53.679Z,101635.20
2018-11-14T14:01:23.811Z,101640.86
2018-11-14T14:03:54.182Z,101640.75
2018-11-14T14:06:24.655Z,101643.27
2018-11-14T14:08:54.548Z,101641.48
2018-11-14T14:11:24.731Z,101635.69
2018-11-14T14:13:59.402Z,101636.77
2018-11-14T14:16:29.700Z,101636.77
2018-11-14T14:18:59.765Z,101634.09
2018-11-14T14:21:29.534Z,101632.37
2018-11-14T14:23:59.492Z,101618.48
2018-11-14T14:26:30.947Z,101634.27
2018-11-14T14:29:01.309Z,101632.08
2018-11-14T14:31:31.945Z,101639.23
2018-11-14T14:34:02.110Z,101638.54
2018-11-14T14:36:32.400Z,101642.16
2018-11-14T14:39:02.291Z,101641.23
2018-11-14T14:41:32.557Z,101634.84
2018-11-14T14:44:02.798Z,101635.80
2018-11-14T14:46:32.670Z,101628.69
2018-11-14T14:49:02.779Z,101624.70
2018-11-14T14:51:32.767Z,101629.41
2018-11-14T14:54:02.879Z,101626.39
2018-11-14T14:56:33.157Z,101625.53
2018-11-14T14:59:03.693Z,101626.91
2018-11-14T15:01:33.645Z,101625.70
2018-11-14T15:04:03.541Z,101625.09
2018-11-14T15:06:33.558Z,101620.27
2018-11-14T15:09:03.652Z,101625.69
2018-11-14T15:11:33.804Z,101634.76
2018-11-14T15:14:03.724Z,101627.40
2018-11-14T15:16:33.696Z,101624.62
2018-11-14T15:19:03.864Z,101628.00
2018-11-14T15:21:34.376Z,101628.96
2018-11-14T15:24:05.555Z,101635.62
2018-11-14T15:26:35.671Z,101636.95
2018-11-14T15:29:05.557Z,101632.84
2018-11-14T15:31:35.565Z,101636.19
2018-11-14T15:34:06.114Z,101643.30
2018-11-14T15:36:36.571Z,101643.18
2018-11-14T15:39:10.514Z,101642.59
2018-11-14T15:41:40.697Z,101646.09
2018-11-14T15:44:11.737Z,101650.06
2018-11-14T15:46:41.619Z,101644.27
2018-11-14T15:49:11.694Z,101644.16
2018-11-14T15:51:41.704Z,101653.45
2018-11-14T15:54:11.578Z,101659.22
2018-11-14T15:56:41.497Z,101661.38
2018-11-14T15:59:11.523Z,101665.59
2018-11-14T16:01:41.682Z,101661.04
2018-11-14T16:04:11.682Z,101664.03
2018-11-14T16:06:41.689Z,101666.63
2018-11-14T16:09:13.447Z,101673.86
2018-11-14T16:11:43.879Z,101671.81
2018-11-14T16:14:13.922Z,101676.38
2018-11-14T16:16:44.182Z,101668.92
2018-11-14T16:19:14.160Z,101672.88
2018-11-14T16:21:44.432Z,101669.86
2018-11-14T16:24:14.607Z,101669.03
2018-11-14T16:26:45.116Z,101671.42
2018-11-14T16:29:15.543Z,101678.05
2018-11-14T16:31:45.562Z,101680.33
2018-11-14T16:34:15.749Z,101685.14
2018-11-14T16:36:45.889Z,101679.38
2018-11-14T16:39:16.322Z,101690.08
2018-11-14T16:41:46.528Z,101689.58
2018-11-14T16:44:16.339Z,101692.09
2018-11-14T16:46:46.521Z,101690.41
2018-11-14T16:49:16.669Z,101692.00
2018-11-14T16:51:47.615Z,101693.78
2018-11-14T16:54:17.602Z,101692.45
2018-11-14T16:56:47.443Z,101694.15
2018-11-14T16:59:17.483Z,101693.55
2018-11-14T17:02:09.142Z,101693.92
2018-11-14T17:04:39.551Z,101694.02
2018-11-14T17:07:09.509Z,101696.08
2018-11-14T17:09:39.405Z,101699.31
2018-11-14T17:12:09.380Z,101710.97
2018-11-14T17:23:56.927Z,101711.66
2018-11-14T17:26:27.217Z,101715.86
2018-11-14T17:28:57.705Z,101714.30
2018-11-14T17:31:27.723Z,101713.08
2018-11-14T17:33:57.821Z,101713.94
2018-11-14T17:36:27.700Z,101714.99
2018-11-14T17:38:57.452Z,101708.00
2018-11-14T17:41:27.321Z,101708.73
2018-11-14T17:43:57.422Z,101711.28
2018-11-14T17:46:29.076Z,101709.38
2018-11-14T17:48:59.112Z,101713.80
2018-11-14T17:51:29.248Z,101716.31
2018-11-14T17:53:59.357Z,101715.73
2018-11-14T17:56:29.526Z,101713.45
2018-11-14T17:58:59.727Z,101710.92
2018-11-14T18:01:29.489Z,101707.91
2018-11-14T18:04:00.653Z,101708.27
2018-11-14T18:06:30.396Z,101708.73
2018-11-14T18:09:00.259Z,101704.39
2018-11-14T18:11:30.414Z,101703.66
2018-11-14T18:14:00.475Z,101702.83
2018-11-14T18:16:30.436Z,101697.17
2018-11-14T18:19:00.369Z,101700.78
2018-11-14T18:21:30.418Z,101701.61
2018-11-14T18:24:00.503Z,101704.39
2018-11-14T18:26:30.232Z,101701.37
2018-11-14T18:29:00.475Z,101709.55
2018-11-14T18:31:30.510Z,101714.39
2018-11-14T18:34:00.418Z,101707.77
2018-11-14T18:36:30.666Z,101699.91
2018-11-14T18:39:00.601Z,101707.13
2018-11-14T18:41:30.557Z,101710.73
2018-11-14T18:44:00.545Z,101721.83
2018-11-14T18:46:30.374Z,101724.11
2018-11-14T18:49:00.490Z,101719.50
2018-11-14T18:51:30.405Z,101721.32
2018-11-14T18:54:00.229Z,101718.67
2018-11-14T18:56:30.205Z,101720.83
2018-11-14T18:59:00.259Z,101719.63
2018-11-14T19:01:30.305Z,101719.27
2018-11-14T19:04:00.284Z,101725.52
2018-11-14T19:06:30.066Z,101718.77
2018-11-14T19:09:00.605Z,101726.84
2018-11-14T19:11:30.332Z,101728.17
2018-11-14T19:14:00.449Z,101737.08
2018-11-14T19:16:30.326Z,101739.81
2018-11-14T19:19:00.384Z,101737.30
2018-11-14T19:21:30.539Z,101735.61
2018-11-14T19:24:00.258Z,101742.59
2018-11-14T19:26:31.086Z,101744.02
2018-11-14T19:29:01.182Z,101748.85
2018-11-14T19:31:31.430Z,101745.09
2018-11-14T19:34:01.566Z,101750.39
2018-11-14T19:36:31.448Z,101758.22
2018-11-14T19:39:01.349Z,101747.25
2018-11-14T19:41:31.223Z,101746.30
2018-11-14T19:44:01.290Z,101747.75
2018-11-14T19:46:31.101Z,101740.76
2018-11-14T19:49:00.953Z,101747.84
2018-11-14T19:51:31.313Z,101744.00
2018-11-14T19:54:02.611Z,101744.95
2018-11-14T19:56:32.797Z,101748.44
2018-11-14T19:59:02.578Z,101748.56
2018-11-14T20:01:32.409Z,101743.36
2018-11-14T20:04:04.493Z,101745.55
2018-11-14T20:06:34.874Z,101747.33
2018-11-14T20:09:07.434Z,101744.81
2018-11-14T20:11:37.746Z,101743.48
2018-11-14T20:14:07.561Z,101741.79
2018-11-14T20:16:37.383Z,101735.17
2018-11-14T20:19:07.663Z,101735.76
2018-11-14T20:21:37.491Z,101741.52
2018-11-14T20:24:07.493Z,101740.69
2018-11-14T20:26:37.455Z,101746.81
2018-11-14T20:29:08.557Z,101752.23
2018-11-14T20:31:38.612Z,101748.27
2018-11-14T20:34:08.507Z,101745.84
2018-11-14T20:36:38.518Z,101744.51
2018-11-14T20:39:12.123Z,101744.51
2018-11-14T20:41:42.470Z,101738.84
2018-11-14T20:44:12.651Z,101740.17
2018-11-14T20:46:42.727Z,101734.87
2018-11-14T20:49:12.733Z,101740.54
2018-11-14T20:51:43.045Z,101738.11
2018-11-14T20:54:13.139Z,101738.48
2018-11-14T20:56:43.376Z,101737.62
2018-11-14T20:59:13.353Z,101739.44
2018-11-14T21:01:43.633Z,101738.70
2018-11-14T21:04:13.681Z,101740.61
2018-11-14T21:06:44.454Z,101744.58
2018-11-14T21:09:14.497Z,101742.39
2018-11-14T21:11:44.333Z,101740.92
2018-11-14T21:14:14.457Z,101736.70
2018-11-14T21:16:44.534Z,101740.77
2018-11-14T21:19:15.453Z,101732.83
2018-11-14T21:21:45.530Z,101739.57
2018-11-14T21:24:15.325Z,101732.22
2018-11-14T21:26:45.484Z,101739.30
2018-11-14T21:29:15.502Z,101743.02
2018-11-14T21:31:45.414Z,101737.95
2018-11-14T21:34:15.622Z,101742.81
2018-11-14T21:36:45.365Z,101740.22
2018-11-14T21:39:15.772Z,101737.14
2018-11-14T21:41:45.894Z,101739.17
2018-11-14T21:44:15.956Z,101733.81
2018-11-14T21:46:46.190Z,101726.67
2018-11-14T21:49:21.210Z,101729.41
2018-11-14T21:51:51.402Z,101737.93
2018-11-14T21:54:21.561Z,101741.03
2018-11-14T21:56:51.345Z,101736.54
2018-11-14T21:59:21.233Z,101741.67
2018-11-14T22:01:51.561Z,101742.46
2018-11-14T22:04:21.385Z,101743.62
2018-11-14T22:06:51.582Z,101746.11
2018-11-14T22:09:22.179Z,101749.61
2018-11-14T22:11:52.125Z,101756.69
2018-11-14T22:14:22.376Z,101748.96
2018-11-14T22:16:52.179Z,101748.91
2018-11-14T22:19:22.382Z,101750.45
2018-11-14T22:21:52.713Z,101746.41
2018-11-14T22:24:22.499Z,101748.30
2018-11-14T22:26:52.711Z,101755.86
2018-11-14T22:29:22.494Z,101752.59
2018-11-14T22:31:52.365Z,101750.98
2018-11-14T22:34:22.442Z,101757.14
2018-11-14T22:36:52.378Z,101750.61
2018-11-14T22:39:22.960Z,101755.27
2018-11-14T22:41:53.065Z,101754.98
2018-11-14T22:44:23.332Z,101756.14
2018-11-14T22:46:53.154Z,101753.33
2018-11-14T22:49:23.277Z,101754.36
2018-11-14T22:51:53.908Z,101759.02
2018-11-14T22:54:24.111Z,101755.09
2018-11-14T22:56:54.413Z,101755.66
2018-11-14T22:59:25.416Z,101750.95
2018-11-14T23:01:55.453Z,101756.69
2018-11-14T23:04:25.277Z,101753.80
2018-11-14T23:06:55.429Z,101757.95
2018-11-14T23:09:25.481Z,101758.05
2018-11-14T23:11:55.241Z,101760.05
2018-11-14T23:14:25.374Z,101757.88
2018-11-14T23:16:55.221Z,101757.61
2018-11-14T23:19:25.168Z,101753.27
2018-11-14T23:21:55.389Z,101752.91
2018-11-14T23:24:25.150Z,101744.69
2018-11-14T23:26:55.257Z,101747.70
2018-11-14T23:29:25.373Z,101745.18
2018-11-14T23:31:56.445Z,101737.45
2018-11-14T23:34:26.280Z,101741.04
2018-11-14T23:36:56.142Z,101744.25
2018-11-14T23:39:26.350Z,101739.17
2018-11-14T23:41:56.526Z,101735.03
2018-11-14T23:44:26.307Z,101733.16
2018-11-14T23:46:56.316Z,101736.00
2018-11-14T23:49:26.189Z,101735.25
2018-11-14T23:51:56.338Z,101738.84
2018-11-14T23:54:26.236Z,101731.11
2018-11-14T23:56:56.373Z,101732.25
2018-11-14T23:59:27.065Z,101735.92
